createdAt,value
2022-11-12T00:01:10.087Z,12
2022-11-12T00:06:11.825Z,12
2022-11-12T00:11:13.469Z,12
2022-11-12T00:16:15.229Z,12
2022-11-12T00:21:17.021Z,11
2022-11-12T00:26:18.639Z,10
2022-11-12T00:31:20.383Z,12
2022-11-12T00:36:22.060Z,11
2022-11-12T00:41:23.714Z,13
2022-11-12T00:46:25.364Z,10
2022-11-12T00:51:27.021Z,16
2022-11-12T00:56:32.986Z,10
2022-11-12T01:01:37.107Z,10
2022-11-12T01:06:39.070Z,13
2022-11-12T01:11:40.831Z,10
2022-11-12T01:16:42.588Z,10
2022-11-12T01:21:44.510Z,13
2022-11-12T01:26:46.249Z,12
2022-11-12T01:31:47.849Z,10
2022-11-12T01:36:49.450Z,12
2022-11-12T01:41:51.135Z,9
2022-11-12T01:46:52.798Z,9
2022-11-12T01:51:54.434Z,10
2022-11-12T01:56:56.160Z,11
2022-11-12T02:01:57.826Z,9
2022-11-12T02:06:59.564Z,9
2022-11-12T02:12:01.286Z,13
2022-11-12T02:17:02.996Z,12
2022-11-12T02:22:04.630Z,13
2022-11-12T02:27:06.314Z,16
2022-11-12T02:32:07.990Z,13
2022-11-12T02:37:09.621Z,15
2022-11-12T02:42:11.219Z,13
2022-11-12T02:47:12.944Z,15
2022-11-12T02:52:14.542Z,13
2022-11-12T02:57:16.116Z,17
2022-11-12T03:02:17.836Z,17
2022-11-12T03:07:19.592Z,18
2022-11-12T03:12:21.225Z,14
2022-11-12T03:17:22.893Z,14
2022-11-12T03:22:24.552Z,15
2022-11-12T03:27:26.231Z,15
2022-11-12T03:32:27.970Z,15
2022-11-12T03:37:29.602Z,14
2022-11-12T03:42:31.236Z,15
2022-11-12T03:47:32.987Z,15
2022-11-12T03:52:34.650Z,14
2022-11-12T03:57:36.306Z,14
2022-11-12T04:02:37.984Z,17
2022-11-12T04:07:39.671Z,14
2022-11-12T04:12:41.284Z,14
2022-11-12T04:17:43.031Z,15
2022-11-12T04:22:44.688Z,12
2022-11-12T04:27:46.435Z,12
2022-11-12T04:32:48.172Z,15
2022-11-12T04:37:49.923Z,12
2022-11-12T04:42:51.559Z,15
2022-11-12T04:47:53.239Z,13
2022-11-12T04:52:54.896Z,13
2022-11-12T04:58:00.576Z,13
2022-11-12T05:03:02.810Z,13
2022-11-12T05:08:04.424Z,11
2022-11-12T05:13:06.142Z,13
2022-11-12T05:18:08.111Z,13
2022-11-12T05:23:09.868Z,10
2022-11-12T05:28:11.561Z,10
2022-11-12T05:33:13.217Z,14
2022-11-12T05:38:14.891Z,9
2022-11-12T05:43:16.541Z,13
2022-11-12T05:48:23.993Z,9
2022-11-12T05:53:26.463Z,9
2022-11-12T05:58:28.471Z,13
2022-11-12T06:03:30.305Z,10
2022-11-12T06:08:32.012Z,9
2022-11-12T06:13:33.663Z,9
2022-11-12T06:18:35.607Z,9
2022-11-12T06:23:37.281Z,12
2022-11-12T06:28:39.056Z,9
2022-11-12T06:33:40.793Z,7
2022-11-12T06:38:42.451Z,9
2022-11-12T06:43:44.211Z,9
2022-11-12T06:48:45.876Z,10
2022-11-12T06:53:47.564Z,10
2022-11-12T06:58:49.354Z,13
2022-11-12T07:03:51.197Z,13
2022-11-12T07:08:52.855Z,13
2022-11-12T07:13:54.526Z,12
2022-11-12T07:18:56.114Z,12
2022-11-12T07:23:58.007Z,15
2022-11-12T07:28:59.603Z,12
2022-11-12T07:34:01.315Z,11
2022-11-12T07:39:02.988Z,15
2022-11-12T07:44:04.637Z,15
2022-11-12T07:49:06.484Z,14
2022-11-12T07:54:08.169Z,16
2022-11-12T07:59:09.833Z,16
2022-11-12T08:04:11.491Z,17
2022-11-12T08:09:13.288Z,20
2022-11-12T08:14:15.323Z,22
2022-11-12T08:19:17.259Z,20
2022-11-12T08:24:19.232Z,20
2022-11-12T08:29:20.997Z,21
2022-11-12T08:34:23.004Z,24
2022-11-12T08:39:24.835Z,24
2022-11-12T08:44:26.534Z,25
2022-11-12T08:49:28.195Z,29
2022-11-12T08:54:30.047Z,34
2022-11-12T08:59:31.966Z,43
2022-11-12T09:04:33.621Z,37
2022-11-12T09:09:35.301Z,32
2022-11-12T09:14:36.914Z,34
2022-11-12T09:19:42.699Z,31
2022-11-12T09:24:44.752Z,26
2022-11-12T09:29:46.458Z,22
2022-11-12T09:34:48.174Z,24
2022-11-12T09:39:49.856Z,22
2022-11-12T09:44:51.519Z,21
2022-11-12T09:49:53.190Z,20
2022-11-12T09:54:55.059Z,24
2022-11-12T09:59:56.716Z,19
2022-11-12T10:04:58.348Z,16
2022-11-12T10:10:00.148Z,15
2022-11-12T10:15:01.796Z,17
2022-11-12T10:20:04.474Z,14
2022-11-12T10:25:06.042Z,14
2022-11-12T10:30:08.644Z,17
2022-11-12T10:35:10.261Z,13
2022-11-12T10:40:11.874Z,15
2022-11-12T10:45:13.629Z,13
2022-11-12T10:50:15.274Z,14
2022-11-12T10:55:16.968Z,13
2022-11-12T11:00:18.660Z,16
2022-11-12T11:05:20.294Z,14
2022-11-12T11:10:21.965Z,13
2022-11-12T11:15:23.654Z,16
2022-11-12T11:20:25.279Z,11
2022-11-12T11:25:26.938Z,14
2022-11-12T11:30:28.599Z,14
2022-11-12T11:35:30.196Z,13
2022-11-12T11:40:31.761Z,13
2022-11-12T11:45:33.419Z,12
2022-11-12T11:50:35.091Z,10
2022-11-12T11:55:36.742Z,14
2022-11-12T12:00:38.368Z,12
2022-11-12T12:05:39.993Z,10
2022-11-12T12:11:06.320Z,12
2022-11-12T12:16:09.832Z,12
2022-11-12T12:21:11.485Z,12
2022-11-12T12:26:13.331Z,13
2022-11-12T12:31:15.578Z,15
2022-11-12T12:36:17.312Z,12
2022-11-12T12:41:19.017Z,16
2022-11-12T12:46:20.744Z,13
2022-11-12T12:51:22.619Z,13
2022-11-12T12:56:24.501Z,12
2022-11-12T13:01:26.151Z,15
2022-11-12T13:06:28.023Z,12
2022-11-12T13:11:29.787Z,13
2022-11-12T13:16:31.462Z,12
2022-11-12T13:21:33.104Z,12
2022-11-12T13:26:34.692Z,13
2022-11-12T13:31:36.267Z,16
2022-11-12T13:36:38.186Z,17
2022-11-12T13:41:39.844Z,21
2022-11-12T13:46:41.457Z,17
2022-11-12T13:51:43.057Z,17
2022-11-12T13:56:45.190Z,19
2022-11-12T14:01:46.807Z,17
2022-11-12T14:06:48.448Z,16
2022-11-12T14:11:50.161Z,20
2022-11-12T14:16:51.862Z,16
2022-11-12T14:21:53.543Z,19
2022-11-12T14:26:55.279Z,13
2022-11-12T14:31:56.949Z,15
2022-11-12T14:36:58.792Z,16
2022-11-12T14:42:00.589Z,15
2022-11-12T14:47:02.254Z,18
2022-11-12T14:52:03.863Z,16
2022-11-12T14:57:05.464Z,16
2022-11-12T15:02:31.687Z,18
2022-11-12T15:07:39.399Z,15
2022-11-12T15:12:41.258Z,16
2022-11-12T15:17:43.551Z,16
2022-11-12T15:22:45.156Z,18
2022-11-12T15:27:46.914Z,13
2022-11-12T15:32:48.569Z,18
2022-11-12T15:37:50.275Z,15
2022-11-12T15:42:51.998Z,12
2022-11-12T15:47:53.765Z,16
2022-11-12T15:52:55.362Z,15
2022-11-12T15:57:56.969Z,14
2022-11-12T16:02:58.704Z,14
2022-11-12T16:08:00.376Z,12
2022-11-12T16:13:02.062Z,14
2022-11-12T16:18:03.642Z,12
2022-11-12T16:23:05.281Z,14
2022-11-12T16:28:06.983Z,13
2022-11-12T16:33:08.604Z,10
2022-11-12T16:38:10.291Z,10
2022-11-12T16:43:11.882Z,11
2022-11-12T16:48:13.437Z,11
2022-11-12T16:53:15.046Z,11
2022-11-12T16:58:16.780Z,10
2022-11-12T17:03:18.668Z,10
2022-11-12T17:08:20.287Z,11
2022-11-12T17:13:21.920Z,9
2022-11-12T17:18:23.570Z,9
2022-11-12T17:23:25.557Z,10
2022-11-12T17:28:27.433Z,10
2022-11-12T17:33:29.442Z,10
2022-11-12T17:38:31.281Z,9
2022-11-12T17:43:32.899Z,11
2022-11-12T17:48:34.488Z,11
2022-11-12T17:53:36.101Z,11
2022-11-12T17:58:37.884Z,13
2022-11-12T18:03:39.479Z,10
2022-11-12T18:08:41.113Z,9
2022-11-12T18:13:42.733Z,11
2022-11-12T18:18:44.336Z,9
2022-11-12T18:23:45.998Z,10
2022-11-12T18:28:47.631Z,9
2022-11-12T18:33:49.404Z,9
2022-11-12T18:38:51.059Z,7
2022-11-12T18:43:52.737Z,10
2022-11-12T18:48:54.365Z,7
2022-11-12T18:53:56.127Z,7
2022-11-12T18:58:57.748Z,7
2022-11-12T19:03:59.395Z,7
2022-11-12T19:09:01.073Z,9
2022-11-12T19:14:02.692Z,9
2022-11-12T19:19:04.400Z,7
2022-11-12T19:24:06.022Z,10
2022-11-12T19:29:07.867Z,7
2022-11-12T19:34:09.494Z,7
2022-11-12T19:39:11.150Z,9
2022-11-12T19:44:12.775Z,7
2022-11-12T19:49:14.385Z,9
2022-11-12T19:54:16.080Z,8
2022-11-12T19:59:17.692Z,9
2022-11-12T20:04:24.030Z,15
2022-11-12T20:09:26.288Z,9
2022-11-12T20:14:27.986Z,10
2022-11-12T20:19:29.675Z,14
2022-11-12T20:24:31.414Z,9
2022-11-12T20:29:33.097Z,10
2022-11-12T20:34:35.997Z,9
2022-11-12T20:39:37.625Z,10
2022-11-12T20:44:39.240Z,7
2022-11-12T20:49:40.849Z,10
2022-11-12T20:54:42.510Z,9
2022-11-12T20:59:44.195Z,7
2022-11-12T21:04:45.811Z,7
2022-11-12T21:09:47.715Z,7
2022-11-12T21:14:50.590Z,9
2022-11-12T21:19:53.044Z,7
2022-11-12T21:24:54.679Z,9
2022-11-12T21:29:56.357Z,6
2022-11-12T21:34:58.013Z,9
2022-11-12T21:39:59.679Z,7
2022-11-12T21:45:01.645Z,6
2022-11-12T21:50:03.337Z,6
2022-11-12T21:55:05.114Z,10
2022-11-12T22:00:39.282Z,6
2022-11-12T22:05:42.603Z,6
2022-11-12T22:10:44.454Z,7
2022-11-12T22:15:46.215Z,6
2022-11-12T22:20:48.065Z,7
2022-11-12T22:25:49.892Z,6
2022-11-12T22:30:51.518Z,7
2022-11-12T22:35:53.285Z,6
2022-11-12T22:40:55.090Z,7
2022-11-12T22:45:56.782Z,6
2022-11-12T22:50:58.670Z,5
2022-11-12T22:56:00.378Z,6
2022-11-12T23:01:02.077Z,7
2022-11-12T23:06:03.802Z,6
2022-11-12T23:11:07.139Z,6
2022-11-12T23:16:08.873Z,6
2022-11-12T23:21:10.886Z,6
2022-11-12T23:26:12.773Z,7
2022-11-12T23:31:14.488Z,6
2022-11-12T23:36:16.110Z,6
2022-11-12T23:41:17.800Z,6
2022-11-12T23:46:19.536Z,8
2022-11-12T23:51:21.168Z,8
2022-11-12T23:56:23.655Z,6
